createdAt,value
2023-03-22T00:00:17.543Z,-24031.96
2023-03-22T00:02:46.672Z,-24031.18
2023-03-22T00:08:15.931Z,-24029.78
2023-03-22T00:10:44.085Z,-24028.28
2023-03-22T00:13:13.053Z,-24027.46
2023-03-22T00:15:44.841Z,-24026.96
2023-03-22T00:18:17.687Z,-24026.84
2023-03-22T00:20:50.009Z,-24026.31
2023-03-22T00:23:18.456Z,-24025.84
2023-03-22T00:25:48.999Z,-24024.75
2023-03-22T00:28:17.521Z,-24024.03
2023-03-22T00:30:56.795Z,-24023.44
2023-03-22T00:33:29.249Z,-24023.56
2023-03-22T00:35:59.146Z,-24023.47
2023-03-22T00:38:41.977Z,-24023.28
2023-03-22T00:41:11.234Z,-24022.88
2023-03-22T00:43:41.198Z,-24021.78
2023-03-22T00:46:10.480Z,-24020.25
2023-03-22T00:48:39.372Z,-24018.75
2023-03-22T00:51:08.325Z,-24017.56
2023-03-22T00:53:41.217Z,-24017.03
2023-03-22T00:56:14.410Z,-24016.38
2023-03-22T00:58:58.832Z,-24015.66
2023-03-22T01:01:32.479Z,-24014.41
2023-03-22T01:04:03.225Z,-24013.28
2023-03-22T01:06:33.461Z,-24012.88
2023-03-22T01:09:01.847Z,-24012.78
2023-03-22T01:11:33.874Z,-24012.72
2023-03-22T01:14:02.033Z,-24012.53
2023-03-22T01:16:30.406Z,-24011.79
2023-03-22T01:18:58.707Z,-24010.85
2023-03-22T01:21:26.981Z,-24009.72
2023-03-22T01:23:55.130Z,-24008.79
2023-03-22T01:26:23.292Z,-24008.19
2023-03-22T01:28:51.479Z,-24007.54
2023-03-22T01:31:19.995Z,-24006.82
2023-03-22T01:33:48.792Z,-24005.88
2023-03-22T01:36:16.992Z,-24005.66
2023-03-22T01:38:45.588Z,-24005.97
2023-03-22T01:41:14.403Z,-24006.00
2023-03-22T01:43:43.758Z,-24005.85
2023-03-22T01:46:12.876Z,-24005.16
2023-03-22T01:48:46.150Z,-24004.91
2023-03-22T01:51:25.424Z,-24004.84
2023-03-22T01:54:34.600Z,-24004.35
2023-03-22T01:57:03.960Z,-24003.60
2023-03-22T01:59:38.437Z,-24003.09
2023-03-22T02:02:19.286Z,-24002.25
2023-03-22T02:04:58.245Z,-24000.94
2023-03-22T02:07:31.869Z,-23999.91
2023-03-22T02:16:36.383Z,-23997.60
2023-03-22T02:19:10.521Z,-23996.31
2023-03-22T02:22:03.791Z,-23995.28
2023-03-22T02:24:56.343Z,-23994.49
2023-03-22T02:27:33.423Z,-23993.59
2023-03-22T02:30:50.142Z,-23992.84
2023-03-22T02:33:25.157Z,-23992.68
2023-03-22T02:36:33.272Z,-23992.77
2023-03-22T02:39:28.781Z,-23992.80
2023-03-22T02:42:15.317Z,-23992.59
2023-03-22T02:45:09.068Z,-23992.46
2023-03-22T02:48:00.772Z,-23991.49
2023-03-22T02:50:40.543Z,-23990.08
2023-03-22T02:53:21.230Z,-23989.65
2023-03-22T02:55:53.474Z,-23989.37
2023-03-22T02:58:25.262Z,-23989.09
2023-03-22T03:00:56.272Z,-23988.33
2023-03-22T03:03:29.388Z,-23987.46
2023-03-22T03:06:00.503Z,-23986.55
2023-03-22T03:08:28.738Z,-23985.61
2023-03-22T03:11:00.307Z,-23984.89
2023-03-22T03:13:29.941Z,-23984.14
2023-03-22T03:15:59.593Z,-23983.48
2023-03-22T03:18:52.890Z,-23982.95
2023-03-22T03:21:24.564Z,-23982.05
2023-03-22T03:23:58.960Z,-23981.20
2023-03-22T03:26:39.499Z,-23980.55
2023-03-22T03:29:28.442Z,-23980.79
2023-03-22T03:32:28.939Z,-23981.80
2023-03-22T03:34:59.949Z,-23982.11
2023-03-22T03:37:37.292Z,-23982.33
2023-03-22T03:40:27.619Z,-23981.98
2023-03-22T03:42:56.500Z,-23981.27
2023-03-22T03:45:25.559Z,-23980.67
2023-03-22T03:47:57.450Z,-23980.20
2023-03-22T03:50:26.008Z,-23980.55
2023-03-22T03:52:55.399Z,-23980.89
2023-03-22T03:55:23.964Z,-23981.39
2023-03-22T03:57:53.392Z,-23980.92
2023-03-22T04:00:21.623Z,-23980.45
2023-03-22T04:03:11.550Z,-23980.08
2023-03-22T04:06:00.237Z,-23979.95
2023-03-22T04:08:28.958Z,-23979.77
2023-03-22T04:11:00.890Z,-23979.20
2023-03-22T04:13:32.176Z,-23978.64
2023-03-22T04:16:02.448Z,-23978.64
2023-03-22T04:18:35.995Z,-23979.02
2023-03-22T04:21:06.931Z,-23978.98
2023-03-22T04:23:42.641Z,-23978.79
2023-03-22T04:26:11.625Z,-23978.48
2023-03-22T04:28:47.373Z,-23977.92
2023-03-22T04:31:15.886Z,-23977.42
2023-03-22T04:33:56.466Z,-23977.48
2023-03-22T04:36:49.908Z,-23977.92
2023-03-22T04:39:35.472Z,-23977.95
2023-03-22T04:42:22.185Z,-23977.64
2023-03-22T04:44:54.620Z,-23977.82
2023-03-22T04:47:22.944Z,-23977.79
2023-03-22T04:49:51.413Z,-23978.26
2023-03-22T04:52:19.840Z,-23979.23
2023-03-22T04:54:52.846Z,-23979.64
2023-03-22T04:57:21.366Z,-23980.20
2023-03-22T04:59:49.699Z,-23980.36
2023-03-22T05:02:19.143Z,-23980.58
2023-03-22T05:04:49.168Z,-23981.14
2023-03-22T05:07:39.366Z,-23981.39
2023-03-22T05:10:11.480Z,-23981.20
2023-03-22T05:12:40.552Z,-23980.86
2023-03-22T05:15:25.056Z,-23981.14
2023-03-22T05:17:56.398Z,-23981.33
2023-03-22T05:20:25.280Z,-23980.80
2023-03-22T05:23:31.073Z,-23980.61
2023-03-22T05:26:01.786Z,-23981.33
2023-03-22T05:28:32.051Z,-23981.58
2023-03-22T05:31:21.820Z,-23980.70
2023-03-22T05:34:04.243Z,-23980.11
2023-03-22T05:36:36.621Z,-23980.86
2023-03-22T05:39:34.122Z,-23981.83
2023-03-22T05:42:02.583Z,-23982.36
2023-03-22T05:44:32.046Z,-23983.61
2023-03-22T05:47:08.386Z,-23984.74
2023-03-22T05:50:07.680Z,-23985.30
2023-03-22T05:52:36.156Z,-23985.83
2023-03-22T05:55:25.637Z,-23986.43
2023-03-22T05:57:57.400Z,-23986.49
2023-03-22T06:00:32.222Z,-23986.08
2023-03-22T06:03:24.592Z,-23986.14
2023-03-22T06:06:15.992Z,-23986.52
2023-03-22T06:09:17.551Z,-23986.33
2023-03-22T06:11:51.391Z,-23987.05
2023-03-22T06:14:19.942Z,-23987.71
2023-03-22T06:17:09.200Z,-23987.55
2023-03-22T06:19:41.068Z,-23987.86
2023-03-22T06:22:10.035Z,-23988.74
2023-03-22T06:24:40.683Z,-23990.12
2023-03-22T06:27:09.722Z,-23991.74
2023-03-22T06:29:41.803Z,-23993.03
2023-03-22T06:32:10.251Z,-23994.71
2023-03-22T06:34:38.784Z,-23996.16
2023-03-22T06:37:07.075Z,-23996.85
2023-03-22T06:39:38.294Z,-23997.22
2023-03-22T06:42:06.701Z,-23997.38
2023-03-22T06:44:35.068Z,-23997.32
2023-03-22T06:47:16.249Z,-23996.91
2023-03-22T06:49:50.601Z,-23996.63
2023-03-22T06:52:25.306Z,-23995.66
2023-03-22T06:54:54.078Z,-23995.28
2023-03-22T06:57:33.021Z,-23996.28
2023-03-22T07:00:01.297Z,-23998.78
2023-03-22T07:02:29.837Z,-24000.66
2023-03-22T07:05:20.045Z,-24001.84
2023-03-22T07:07:48.273Z,-24002.79
2023-03-22T07:10:18.361Z,-24003.44
2023-03-22T07:12:48.376Z,-24003.85
2023-03-22T07:15:17.855Z,-24004.66
2023-03-22T07:17:57.626Z,-24005.82
2023-03-22T07:20:26.241Z,-24006.34
2023-03-22T07:22:54.694Z,-24007.13
2023-03-22T07:25:25.432Z,-24008.66
2023-03-22T07:28:03.534Z,-24009.91
2023-03-22T07:30:37.896Z,-24010.10
2023-03-22T07:33:06.955Z,-24011.47
2023-03-22T07:35:36.995Z,-24012.63
2023-03-22T07:38:06.711Z,-24014.72
2023-03-22T07:40:35.219Z,-24017.09
2023-03-22T07:43:04.066Z,-24018.59
2023-03-22T07:45:49.394Z,-24019.53
2023-03-22T07:48:54.038Z,-24021.21
2023-03-22T07:51:42.361Z,-24021.21
2023-03-22T07:54:14.020Z,-24021.94
2023-03-22T07:56:48.207Z,-24023.66
2023-03-22T07:59:17.659Z,-24025.84
2023-03-22T08:01:46.495Z,-24027.75
2023-03-22T08:04:42.210Z,-24027.15
2023-03-22T08:07:33.556Z,-24026.53
2023-03-22T08:10:06.271Z,-24025.28
2023-03-22T08:12:35.731Z,-24025.21
2023-03-22T08:15:34.348Z,-24026.03
2023-03-22T08:18:03.028Z,-24027.12
2023-03-22T08:20:35.351Z,-24029.25
2023-03-22T08:23:08.130Z,-24032.62
2023-03-22T08:25:54.974Z,-24034.33
2023-03-22T08:28:23.349Z,-24035.43
2023-03-22T08:30:51.692Z,-24035.14
2023-03-22T08:33:23.421Z,-24034.99
2023-03-22T08:36:08.170Z,-24036.05
2023-03-22T08:38:39.530Z,-24037.39
2023-03-22T08:41:09.268Z,-24038.89
2023-03-22T08:43:38.612Z,-24040.64
2023-03-22T08:46:08.013Z,-24042.01
2023-03-22T08:48:38.105Z,-24042.48
2023-03-22T08:51:20.736Z,-24042.79
2023-03-22T08:54:04.705Z,-24044.57
2023-03-22T08:56:59.414Z,-24046.76
2023-03-22T08:59:52.469Z,-24048.35
2023-03-22T09:02:24.822Z,-24049.81
2023-03-22T09:04:54.210Z,-24051.81
2023-03-22T09:07:27.493Z,-24053.56
2023-03-22T09:10:09.752Z,-24055.25
2023-03-22T09:12:39.950Z,-24057.43
2023-03-22T09:15:08.984Z,-24059.55
2023-03-22T09:17:38.239Z,-24061.23
2023-03-22T09:20:12.783Z,-24063.45
2023-03-22T09:22:43.092Z,-24065.82
2023-03-22T09:25:13.022Z,-24068.07
2023-03-22T09:27:43.650Z,-24069.62
2023-03-22T09:30:14.520Z,-24071.71
2023-03-22T09:32:43.509Z,-24073.89
2023-03-22T09:35:13.433Z,-24075.30
2023-03-22T09:37:54.771Z,-24076.02
2023-03-22T09:40:29.404Z,-24077.07
2023-03-22T09:42:59.343Z,-24078.91
2023-03-22T09:45:38.416Z,-24081.19
2023-03-22T09:48:15.769Z,-24083.83
2023-03-22T09:50:47.439Z,-24084.98
2023-03-22T09:53:16.691Z,-24085.11
2023-03-22T09:56:00.952Z,-24085.05
2023-03-22T09:58:40.699Z,-24085.98
2023-03-22T10:01:21.155Z,-24087.36
2023-03-22T10:04:26.680Z,-24087.85
2023-03-22T10:07:11.030Z,-24089.75
2023-03-22T10:10:06.719Z,-24093.53
2023-03-22T10:12:47.598Z,-24095.58
2023-03-22T10:15:19.850Z,-24096.39
2023-03-22T10:17:54.233Z,-24097.70
2023-03-22T10:20:37.648Z,-24098.69
2023-03-22T10:23:09.291Z,-24100.31
2023-03-22T10:25:40.017Z,-24101.84
2023-03-22T10:28:34.986Z,-24102.56
2023-03-22T10:31:05.667Z,-24103.22
2023-03-22T10:33:38.069Z,-24104.15
2023-03-22T10:36:11.270Z,-24105.39
2023-03-22T10:38:46.516Z,-24106.48
2023-03-22T10:41:16.813Z,-24107.73
2023-03-22T10:43:45.784Z,-24109.60
2023-03-22T10:46:19.138Z,-24111.84
2023-03-22T10:48:49.728Z,-24114.61
2023-03-22T10:51:25.740Z,-24116.35
2023-03-22T10:53:58.248Z,-24118.56
2023-03-22T10:56:26.843Z,-24119.84
2023-03-22T10:58:57.402Z,-24120.93
2023-03-22T11:01:26.978Z,-24121.83
2023-03-22T11:04:22.051Z,-24122.52
2023-03-22T11:06:56.080Z,-24122.61
2023-03-22T11:09:24.874Z,-24122.92
2023-03-22T11:11:54.526Z,-24122.14
2023-03-22T11:14:43.355Z,-24121.24
2023-03-22T11:17:14.277Z,-24121.89
2023-03-22T11:19:55.442Z,-24121.89
2023-03-22T11:22:28.827Z,-24122.64
2023-03-22T11:24:57.139Z,-24122.42
2023-03-22T11:27:30.042Z,-24121.98
2023-03-22T11:29:59.820Z,-24120.99
2023-03-22T11:32:41.015Z,-24119.74
2023-03-22T11:35:23.468Z,-24119.34
2023-03-22T11:37:52.820Z,-24116.44
2023-03-22T11:40:28.239Z,-24114.39
2023-03-22T11:43:15.866Z,-24115.08
2023-03-22T11:45:44.433Z,-24116.42
2023-03-22T11:48:18.188Z,-24117.63
2023-03-22T11:50:46.574Z,-24119.53
2023-03-22T11:53:19.652Z,-24122.11
2023-03-22T11:55:48.875Z,-24122.70
2023-03-22T11:58:39.845Z,-24123.01
2023-03-22T12:01:11.205Z,-24124.29
2023-03-22T12:03:40.677Z,-24125.90
2023-03-22T12:06:28.533Z,-24126.78
2023-03-22T12:09:04.332Z,-24126.40
2023-03-22T12:11:43.927Z,-24126.74
2023-03-22T13:55:48.331Z,-24142.91
2023-03-22T13:58:36.439Z,-24142.38
2023-03-22T14:01:36.466Z,-24142.11
2023-03-22T14:04:10.860Z,-24142.17
2023-03-22T14:06:47.586Z,-24143.32
2023-03-22T14:09:36.483Z,-24145.10
2023-03-22T14:12:06.343Z,-24146.71
2023-03-22T14:14:36.984Z,-24147.89
2023-03-22T14:17:12.183Z,-24149.23
2023-03-22T14:19:40.681Z,-24150.72
